Time;durP1;ratioP1;P1;durP2;ratioP2;P2;SDS_P1;SDS_P2;PMS_P1;PMS_P2;Temp;Humidity;BMP_temperature;BMP_pressure;BME280_temperature;BME280_humidity;BME280_pressure;Samples;Min_cycle;Max_cycle;Signal;HPM_P1;HPM_P2
2021/09/03 00:01:11;;;;;;;16.05;10.75;;;;;;;;;;5054007;28;20043;-76
2021/09/03 00:03:55;;;;;;;17.50;10.57;;;;;;;;;;5052245;28;20545;-75
2021/09/03 00:06:40;;;;;;;16.88;10.27;;;;;;;;;;5055207;28;20086;-76
2021/09/03 00:09:24;;;;;;;17.20;10.95;;;;;;;;;;5023135;28;20043;-76
2021/09/03 00:12:09;;;;;;;17.80;10.93;;;;;;;;;;5032020;28;20082;-76
2021/09/03 00:14:54;;;;;;;16.10;10.85;;;;;;;;;;5038811;28;20521;-77
2021/09/03 00:17:39;;;;;;;15.38;10.23;;;;;;;;;;5030616;28;20052;-75
2021/09/03 00:20:23;;;;;;;14.25;9.55;;;;;;;;;;5033833;28;20044;-76
2021/09/03 00:23:08;;;;;;;16.83;10.50;;;;;;;;;;5030854;28;20094;-76
2021/09/03 00:25:53;;;;;;;16.77;10.57;;;;;;;;;;5035365;28;20098;-76
2021/09/03 00:28:38;;;;;;;18.38;10.02;;;;;;;;;;5051838;28;20125;-77
2021/09/03 00:31:23;;;;;;;14.07;9.80;;;;;;;;;;5025110;28;20097;-76
2021/09/03 00:34:07;;;;;;;16.58;9.57;;;;;;;;;;5042535;28;20074;-75
2021/09/03 00:36:52;;;;;;;16.20;9.93;;;;;;;;;;5055751;28;20094;-77
2021/09/03 00:39:37;;;;;;;16.67;9.75;;;;;;;;;;5044018;28;20035;-77
2021/09/03 00:42:21;;;;;;;16.30;10.50;;;;;;;;;;5044108;28;20048;-75
2021/09/03 00:45:06;;;;;;;16.27;10.18;;;;;;;;;;5029809;28;20063;-76
2021/09/03 00:47:51;;;;;;;14.80;9.85;;;;;;;;;;5056440;28;20075;-75
2021/09/03 00:50:35;;;;;;;15.10;9.85;;;;;;;;;;5046157;28;20136;-76
2021/09/03 00:53:20;;;;;;;18.40;9.88;;;;;;;;;;5041406;28;20055;-75
2021/09/03 00:56:04;;;;;;;15.05;9.93;;;;;;;;;;5054106;28;20043;-76
2021/09/03 00:58:49;;;;;;;18.08;9.93;;;;;;;;;;5034556;28;20067;-76
2021/09/03 01:01:34;;;;;;;14.93;9.73;;;;;;;;;;5028397;28;20044;-76
2021/09/03 01:04:19;;;;;;;15.70;9.55;;;;;;;;;;5066305;28;20090;-77
2021/09/03 01:07:03;;;;;;;14.13;9.45;;;;;;;;;;5056614;28;20043;-76
2021/09/03 01:09:48;;;;;;;16.77;9.15;;;;;;;;;;5048458;28;20070;-76
2021/09/03 01:12:33;;;;;;;16.65;9.85;;;;;;;;;;5049451;28;20043;-75
2021/09/03 01:15:17;;;;;;;16.33;9.77;;;;;;;;;;5050480;28;20044;-75
2021/09/03 01:18:02;;;;;;;14.73;9.07;;;;;;;;;;5062295;28;20060;-75
2021/09/03 01:20:47;;;;;;;14.95;9.73;;;;;;;;;;5067704;28;20043;-76
2021/09/03 01:23:32;;;;;;;14.40;9.00;;;;;;;;;;5060134;28;20048;-75
2021/09/03 01:26:16;;;;;;;15.13;10.13;;;;;;;;;;5045321;28;20441;-75
2021/09/03 01:29:01;;;;;;;14.65;9.57;;;;;;;;;;5049936;28;20044;-77
2021/09/03 01:31:45;;;;;;;13.88;9.38;;;;;;;;;;5049053;28;20044;-75
2021/09/03 01:34:30;;;;;;;14.70;9.77;;;;;;;;;;5051830;28;20052;-75
2021/09/03 01:37:14;;;;;;;14.93;9.25;;;;;;;;;;5047353;28;20098;-75
2021/09/03 01:39:58;;;;;;;14.18;9.63;;;;;;;;;;5051382;28;20493;-76
2021/09/03 01:42:43;;;;;;;15.15;9.25;;;;;;;;;;5028910;28;20043;-76
2021/09/03 01:45:28;;;;;;;13.52;9.18;;;;;;;;;;5031405;28;20064;-76
2021/09/03 01:48:12;;;;;;;14.02;9.02;;;;;;;;;;5046173;28;20512;-76
2021/09/03 01:50:57;;;;;;;13.38;9.18;;;;;;;;;;5057575;28;20047;-76
2021/09/03 01:53:41;;;;;;;14.57;8.85;;;;;;;;;;5055604;28;20051;-78
2021/09/03 01:56:26;;;;;;;12.73;8.80;;;;;;;;;;5050757;28;20059;-77
2021/09/03 01:59:10;;;;;;;14.13;9.00;;;;;;;;;;5039055;28;20080;-76
2021/09/03 02:01:55;;;;;;;14.40;8.95;;;;;;;;;;5054084;28;20032;-76
2021/09/03 02:04:40;;;;;;;14.10;9.63;;;;;;;;;;5043863;28;20051;-77
2021/09/03 02:07:24;;;;;;;13.30;8.85;;;;;;;;;;5069229;28;20516;-76
2021/09/03 02:10:09;;;;;;;13.65;8.90;;;;;;;;;;5059181;28;20571;-76
2021/09/03 02:12:53;;;;;;;14.10;9.20;;;;;;;;;;5046944;28;20130;-76
2021/09/03 02:15:38;;;;;;;12.00;8.32;;;;;;;;;;5056297;28;20044;-76
2021/09/03 02:18:22;;;;;;;13.50;8.75;;;;;;;;;;5051543;28;20139;-76
2021/09/03 02:21:07;;;;;;;11.98;8.02;;;;;;;;;;5039989;28;20040;-76
2021/09/03 02:23:51;;;;;;;13.82;9.80;;;;;;;;;;5054555;28;20055;-76
2021/09/03 02:26:36;;;;;;;12.32;8.60;;;;;;;;;;5054462;28;20505;-76
2021/09/03 02:29:21;;;;;;;14.98;9.00;;;;;;;;;;5035272;28;20457;-76
2021/09/03 02:32:05;;;;;;;13.75;8.43;;;;;;;;;;5052613;28;20072;-75
2021/09/03 02:34:50;;;;;;;13.75;8.05;;;;;;;;;;5043823;28;20108;-76
2021/09/03 02:37:35;;;;;;;14.57;8.80;;;;;;;;;;5032864;28;20052;-75
2021/09/03 02:40:20;;;;;;;12.82;8.15;;;;;;;;;;5030517;28;20036;-76
2021/09/03 02:43:04;;;;;;;13.80;8.75;;;;;;;;;;5054890;28;20569;-76
2021/09/03 02:45:49;;;;;;;11.60;8.27;;;;;;;;;;5032058;28;20080;-76
2021/09/03 02:48:33;;;;;;;13.20;8.32;;;;;;;;;;5056835;28;20093;-77
2021/09/03 02:51:18;;;;;;;13.30;8.18;;;;;;;;;;5030046;28;20043;-77
2021/09/03 02:54:02;;;;;;;13.27;8.70;;;;;;;;;;5062539;28;20047;-77
2021/09/03 02:56:47;;;;;;;11.88;8.30;;;;;;;;;;5053649;28;20144;-76
2021/09/03 02:59:31;;;;;;;13.07;8.60;;;;;;;;;;5054291;28;20131;-76
2021/09/03 03:02:16;;;;;;;12.32;8.40;;;;;;;;;;5063420;28;20443;-77
2021/09/03 03:05:00;;;;;;;14.18;8.50;;;;;;;;;;5048823;28;20074;-76
2021/09/03 03:07:45;;;;;;;16.27;9.35;;;;;;;;;;5028592;28;20130;-77
2021/09/03 03:10:29;;;;;;;12.23;8.38;;;;;;;;;;5048691;28;20174;-77
2021/09/03 03:13:22;;;;;;;12.60;8.13;;;;;;;;;;5059320;28;20067;-77
2021/09/03 03:16:07;;;;;;;12.60;8.32;;;;;;;;;;5048294;28;20489;-77
2021/09/03 03:18:51;;;;;;;15.98;8.77;;;;;;;;;;5058374;28;20048;-76
2021/09/03 03:21:36;;;;;;;11.35;7.88;;;;;;;;;;5053244;28;20030;-77
2021/09/03 03:24:20;;;;;;;13.10;8.38;;;;;;;;;;5052661;28;20047;-77
2021/09/03 03:27:05;;;;;;;13.40;8.02;;;;;;;;;;5066209;28;20043;-77
2021/09/03 03:29:50;;;;;;;14.55;8.52;;;;;;;;;;5049363;28;20079;-77
2021/09/03 03:32:34;;;;;;;13.40;7.93;;;;;;;;;;5061369;28;20402;-76
2021/09/03 03:35:18;;;;;;;14.45;7.93;;;;;;;;;;5053116;28;20041;-76
2021/09/03 03:38:03;;;;;;;12.70;7.85;;;;;;;;;;5029561;28;20132;-76
2021/09/03 03:40:47;;;;;;;13.68;7.43;;;;;;;;;;5035702;28;20044;-77
2021/09/03 03:43:32;;;;;;;13.60;7.78;;;;;;;;;;5032346;28;20059;-76
2021/09/03 03:46:16;;;;;;;10.30;6.88;;;;;;;;;;5049506;28;20108;-76
2021/09/03 03:49:01;;;;;;;12.00;7.63;;;;;;;;;;5029718;28;20639;-76
2021/09/03 03:51:46;;;;;;;11.60;7.85;;;;;;;;;;5015015;28;20075;-76
2021/09/03 03:54:30;;;;;;;14.07;9.00;;;;;;;;;;5062797;28;20089;-76
2021/09/03 03:57:15;;;;;;;13.20;7.43;;;;;;;;;;5058979;28;20529;-77
2021/09/03 03:59:59;;;;;;;11.82;7.60;;;;;;;;;;5052934;28;20040;-76
2021/09/03 04:02:44;;;;;;;11.90;7.22;;;;;;;;;;5062776;28;20089;-76
2021/09/03 04:05:28;;;;;;;14.20;7.55;;;;;;;;;;5066872;28;20536;-76
2021/09/03 04:08:13;;;;;;;11.65;7.80;;;;;;;;;;5054336;28;20039;-76
2021/09/03 04:10:57;;;;;;;11.52;7.22;;;;;;;;;;5058023;28;20074;-76
2021/09/03 04:13:42;;;;;;;11.60;7.55;;;;;;;;;;5056405;28;20553;-76
2021/09/03 04:16:26;;;;;;;13.00;7.22;;;;;;;;;;5049126;28;20087;-76
2021/09/03 04:19:11;;;;;;;9.88;7.05;;;;;;;;;;5058970;28;20043;-76
2021/09/03 04:21:56;;;;;;;12.00;7.45;;;;;;;;;;5050216;28;20047;-76
2021/09/03 04:24:40;;;;;;;11.88;7.25;;;;;;;;;;5054356;28;20051;-77
2021/09/03 04:27:25;;;;;;;11.68;7.38;;;;;;;;;;5062842;28;20437;-77
2021/09/03 04:30:10;;;;;;;11.55;7.28;;;;;;;;;;5039942;28;20115;-76
2021/09/03 04:32:54;;;;;;;10.35;6.70;;;;;;;;;;5021832;28;20090;-77
2021/09/03 04:35:39;;;;;;;9.73;6.85;;;;;;;;;;5056183;28;20083;-76
2021/09/03 04:38:23;;;;;;;12.10;7.72;;;;;;;;;;5068376;28;20047;-76
2021/09/03 04:41:08;;;;;;;12.20;7.32;;;;;;;;;;5052249;28;20040;-77
2021/09/03 04:43:52;;;;;;;11.05;6.80;;;;;;;;;;5062039;28;20120;-77
2021/09/03 04:46:37;;;;;;;11.18;7.25;;;;;;;;;;5069221;28;20421;-76
2021/09/03 04:49:21;;;;;;;11.85;7.10;;;;;;;;;;5065517;28;20039;-76
2021/09/03 04:52:06;;;;;;;11.10;7.00;;;;;;;;;;5052760;28;20078;-76
2021/09/03 04:54:51;;;;;;;12.65;7.65;;;;;;;;;;5069842;28;20047;-76
2021/09/03 04:57:42;;;;;;;11.82;7.10;;;;;;;;;;5067772;28;20090;-76
2021/09/03 05:00:27;;;;;;;11.57;7.10;;;;;;;;;;5056244;28;20144;-76
2021/09/03 05:03:12;;;;;;;8.82;6.30;;;;;;;;;;5029486;28;20048;-77
2021/09/03 05:05:56;;;;;;;11.32;7.22;;;;;;;;;;5052761;28;20066;-76
2021/09/03 05:08:41;;;;;;;10.52;7.15;;;;;;;;;;5047948;28;20043;-76
2021/09/03 05:11:25;;;;;;;10.80;7.07;;;;;;;;;;5040244;28;20124;-76
2021/09/03 05:14:10;;;;;;;10.55;6.40;;;;;;;;;;5050643;28;20059;-76
2021/09/03 05:16:55;;;;;;;11.07;6.93;;;;;;;;;;5069094;28;20541;-76
2021/09/03 05:19:40;;;;;;;10.82;7.10;;;;;;;;;;5067771;28;20328;-76
2021/09/03 05:22:25;;;;;;;10.55;7.35;;;;;;;;;;5050115;28;20122;-75
2021/09/03 05:25:09;;;;;;;11.32;6.90;;;;;;;;;;5048139;28;20048;-75
2021/09/03 05:27:54;;;;;;;10.90;7.05;;;;;;;;;;5057511;28;20063;-75
2021/09/03 05:30:38;;;;;;;11.00;7.28;;;;;;;;;;5043611;28;20072;-76
2021/09/03 05:33:23;;;;;;;10.63;6.90;;;;;;;;;;5039230;28;20498;-76
2021/09/03 05:36:07;;;;;;;10.68;7.38;;;;;;;;;;5058858;28;20090;-76
2021/09/03 05:38:51;;;;;;;9.40;6.43;;;;;;;;;;5041468;28;20053;-75
2021/09/03 05:41:36;;;;;;;12.45;7.75;;;;;;;;;;5055482;28;20052;-75
2021/09/03 05:44:20;;;;;;;11.35;6.90;;;;;;;;;;5066636;28;20606;-75
2021/09/03 05:47:05;;;;;;;10.00;6.80;;;;;;;;;;5050990;28;20035;-75
2021/09/03 05:49:49;;;;;;;9.30;6.70;;;;;;;;;;5047311;28;20055;-75
2021/09/03 05:52:34;;;;;;;11.60;6.97;;;;;;;;;;5046968;28;20039;-75
2021/09/03 05:55:19;;;;;;;11.05;6.80;;;;;;;;;;5061211;28;20454;-74
2021/09/03 05:58:03;;;;;;;11.80;7.47;;;;;;;;;;5038266;28;20118;-75
2021/09/03 06:00:48;;;;;;;13.07;6.88;;;;;;;;;;5053030;28;20142;-76
2021/09/03 06:03:33;;;;;;;8.65;5.88;;;;;;;;;;5065252;28;20405;-76
2021/09/03 06:06:18;;;;;;;11.05;6.45;;;;;;;;;;5052560;28;20638;-75
2021/09/03 06:09:02;;;;;;;9.50;6.32;;;;;;;;;;5025385;28;20335;-75
2021/09/03 06:11:46;;;;;;;12.52;7.30;;;;;;;;;;5055903;28;20552;-76
2021/09/03 06:14:31;;;;;;;12.63;6.82;;;;;;;;;;5027876;28;20052;-75
2021/09/03 06:17:17;;;;;;;9.93;6.82;;;;;;;;;;5045604;28;20056;-75
2021/09/03 06:20:03;;;;;;;10.98;6.80;;;;;;;;;;5048093;28;20036;-76
2021/09/03 06:22:47;;;;;;;9.27;6.10;;;;;;;;;;5055317;28;20043;-76
2021/09/03 06:25:32;;;;;;;13.90;7.60;;;;;;;;;;5064743;28;20051;-76
2021/09/03 06:28:17;;;;;;;13.52;7.20;;;;;;;;;;5057117;28;20044;-75
2021/09/03 06:31:01;;;;;;;11.20;7.07;;;;;;;;;;5045796;28;20099;-76
2021/09/03 06:33:46;;;;;;;11.85;7.38;;;;;;;;;;5026725;28;20048;-76
2021/09/03 06:36:30;;;;;;;10.82;7.07;;;;;;;;;;5046227;28;20547;-75
2021/09/03 06:39:14;;;;;;;13.73;7.55;;;;;;;;;;5066616;28;20699;-76
2021/09/03 06:41:59;;;;;;;10.18;6.90;;;;;;;;;;5058652;28;20079;-76
2021/09/03 06:44:44;;;;;;;12.82;7.07;;;;;;;;;;5064453;28;20362;-76
2021/09/03 06:47:30;;;;;;;11.70;7.00;;;;;;;;;;5046445;28;20043;-76
2021/09/03 06:50:14;;;;;;;11.43;6.72;;;;;;;;;;5026311;28;20064;-76
2021/09/03 06:52:59;;;;;;;14.57;7.70;;;;;;;;;;5055485;28;20043;-75
2021/09/03 06:55:44;;;;;;;15.38;7.85;;;;;;;;;;5065940;28;20044;-76
2021/09/03 06:58:28;;;;;;;13.52;8.02;;;;;;;;;;5065192;28;20500;-76
2021/09/03 07:01:13;;;;;;;12.18;6.88;;;;;;;;;;5063222;28;20039;-76
2021/09/03 07:03:57;;;;;;;10.80;6.88;;;;;;;;;;5033995;28;20456;-75
2021/09/03 07:06:42;;;;;;;13.38;7.47;;;;;;;;;;5047369;28;20509;-76
2021/09/03 07:09:26;;;;;;;11.23;6.38;;;;;;;;;;5038838;28;20039;-76
2021/09/03 07:12:11;;;;;;;13.80;7.40;;;;;;;;;;5060762;28;20413;-76
2021/09/03 07:14:56;;;;;;;10.52;6.40;;;;;;;;;;5050743;28;20036;-76
2021/09/03 07:17:40;;;;;;;12.00;7.53;;;;;;;;;;5043221;28;20055;-76
2021/09/03 07:20:25;;;;;;;12.60;7.18;;;;;;;;;;5048397;28;20115;-76
2021/09/03 07:23:09;;;;;;;10.90;7.18;;;;;;;;;;5063626;28;20068;-75
2021/09/03 07:25:54;;;;;;;12.98;6.90;;;;;;;;;;5045472;28;20067;-75
2021/09/03 07:28:39;;;;;;;9.63;6.57;;;;;;;;;;5045469;28;20536;-76
2021/09/03 07:31:23;;;;;;;10.02;6.80;;;;;;;;;;5043622;28;20580;-76
2021/09/03 07:34:08;;;;;;;9.65;6.53;;;;;;;;;;5031362;28;20041;-76
2021/09/03 07:36:53;;;;;;;8.90;6.70;;;;;;;;;;5045342;28;20063;-76
2021/09/03 07:39:38;;;;;;;11.90;6.78;;;;;;;;;;5046223;28;20047;-76
2021/09/03 07:42:22;;;;;;;9.68;6.13;;;;;;;;;;5044955;28;20036;-76
2021/09/03 07:45:07;;;;;;;13.80;7.28;;;;;;;;;;5045225;28;20498;-76
2021/09/03 07:47:52;;;;;;;10.38;6.75;;;;;;;;;;5047908;28;20132;-74
2021/09/03 07:50:36;;;;;;;10.38;6.32;;;;;;;;;;5045145;28;20043;-75
2021/09/03 07:53:21;;;;;;;10.30;6.47;;;;;;;;;;5051992;28;20082;-76
2021/09/03 07:56:06;;;;;;;9.57;6.18;;;;;;;;;;5031367;28;20056;-75
2021/09/03 07:58:50;;;;;;;10.25;6.63;;;;;;;;;;5043618;28;20083;-75
2021/09/03 08:01:35;;;;;;;10.82;6.47;;;;;;;;;;5056208;28;20078;-75
2021/09/03 08:04:19;;;;;;;9.57;6.40;;;;;;;;;;5056720;28;20036;-75
2021/09/03 08:07:04;;;;;;;9.65;6.22;;;;;;;;;;5038845;28;20032;-75
2021/09/03 08:09:49;;;;;;;9.60;6.50;;;;;;;;;;5049447;28;20090;-74
2021/09/03 08:12:34;;;;;;;9.23;6.25;;;;;;;;;;5041917;28;20516;-74
2021/09/03 08:15:18;;;;;;;9.05;6.35;;;;;;;;;;5066328;28;20082;-75
2021/09/03 08:18:03;;;;;;;10.35;7.18;;;;;;;;;;5056867;28;20063;-75
2021/09/03 08:20:47;;;;;;;11.70;6.47;;;;;;;;;;5035998;28;20094;-75
2021/09/03 08:23:34;;;;;;;11.45;5.97;;;;;;;;;;5048097;28;20047;-75
2021/09/03 08:26:18;;;;;;;9.57;5.90;;;;;;;;;;5047074;28;20075;-75
2021/09/03 08:29:03;;;;;;;9.70;6.32;;;;;;;;;;5034280;28;20044;-76
2021/09/03 08:31:47;;;;;;;10.05;6.57;;;;;;;;;;5049408;28;20058;-75
2021/09/03 08:34:32;;;;;;;13.15;6.60;;;;;;;;;;5028238;28;20056;-75
2021/09/03 08:37:16;;;;;;;10.00;6.30;;;;;;;;;;5038957;28;20047;-83
2021/09/03 08:40:01;;;;;;;11.20;6.60;;;;;;;;;;5022248;28;20115;-78
2021/09/03 08:42:45;;;;;;;9.05;6.22;;;;;;;;;;5041777;28;20114;-77
2021/09/03 08:45:30;;;;;;;10.43;6.15;;;;;;;;;;5043816;28;20082;-79
2021/09/03 08:48:18;;;;;;;10.18;6.15;;;;;;;;;;5045839;28;20120;-77
2021/09/03 08:51:03;;;;;;;8.77;6.30;;;;;;;;;;5046144;28;20459;-77
2021/09/03 08:53:47;;;;;;;10.95;6.30;;;;;;;;;;5048437;28;20568;-79
2021/09/03 08:56:32;;;;;;;9.38;6.25;;;;;;;;;;5043440;28;20044;-76
2021/09/03 08:59:16;;;;;;;9.18;6.00;;;;;;;;;;5048182;28;20068;-77
2021/09/03 09:02:08;;;;;;;11.35;6.35;;;;;;;;;;5047829;28;20500;-75
2021/09/03 09:04:53;;;;;;;13.13;7.70;;;;;;;;;;5047506;28;20132;-76
2021/09/03 09:07:37;;;;;;;11.32;7.18;;;;;;;;;;5046846;28;20036;-76
2021/09/03 09:10:25;;;;;;;8.25;6.47;;;;;;;;;;5048510;28;20402;-74
2021/09/03 09:13:13;;;;;;;11.30;6.95;;;;;;;;;;5033334;28;20040;-75
2021/09/03 09:15:58;;;;;;;14.50;6.68;;;;;;;;;;5036105;28;20040;-76
2021/09/03 09:18:44;;;;;;;10.15;6.43;;;;;;;;;;5039291;28;20494;-76
2021/09/03 09:21:31;;;;;;;9.25;6.28;;;;;;;;;;5037443;28;20032;-76
2021/09/03 09:24:16;;;;;;;11.38;6.70;;;;;;;;;;5043297;28;20458;-76
2021/09/03 09:27:00;;;;;;;9.68;6.00;;;;;;;;;;5040826;28;20473;-76
2021/09/03 09:29:45;;;;;;;11.38;6.55;;;;;;;;;;5038999;28;20059;-76
2021/09/03 09:32:29;;;;;;;11.45;6.70;;;;;;;;;;5037908;28;20531;-77
2021/09/03 09:35:18;;;;;;;10.75;6.82;;;;;;;;;;5036910;28;20036;-76
2021/09/03 09:38:02;;;;;;;9.57;6.50;;;;;;;;;;5036440;28;20075;-76
2021/09/03 09:40:48;;;;;;;8.95;6.35;;;;;;;;;;5032089;28;20040;-75
2021/09/03 09:43:40;;;;;;;9.75;6.20;;;;;;;;;;5052973;28;20413;-76
2021/09/03 09:46:25;;;;;;;9.98;6.65;;;;;;;;;;5056760;28;20099;-76
2021/09/03 09:49:10;;;;;;;9.18;6.07;;;;;;;;;;5047243;28;20156;-75
2021/09/03 09:51:57;;;;;;;9.50;6.15;;;;;;;;;;5057469;28;20116;-76
2021/09/03 09:54:41;;;;;;;9.50;6.13;;;;;;;;;;5020893;28;20052;-74
2021/09/03 09:57:26;;;;;;;11.07;5.97;;;;;;;;;;5062215;28;20052;-75
2021/09/03 10:00:12;;;;;;;8.55;5.97;;;;;;;;;;5047501;28;20056;-76
2021/09/03 10:02:56;;;;;;;9.75;6.20;;;;;;;;;;5047550;28;20044;-76
2021/09/03 10:05:41;;;;;;;8.73;5.43;;;;;;;;;;5047951;28;20086;-76
2021/09/03 10:08:25;;;;;;;9.85;6.82;;;;;;;;;;5034709;28;20517;-77
2021/09/03 10:11:10;;;;;;;9.48;6.45;;;;;;;;;;5041294;28;20032;-76
2021/09/03 10:13:54;;;;;;;9.95;6.65;;;;;;;;;;5033197;28;20075;-76
2021/09/03 10:16:39;;;;;;;9.05;6.20;;;;;;;;;;5047050;28;20051;-75
2021/09/03 10:19:25;;;;;;;9.95;6.05;;;;;;;;;;5046924;28;20071;-75
2021/09/03 10:22:13;;;;;;;9.02;5.85;;;;;;;;;;5052765;28;20040;-76
2021/09/03 10:25:05;;;;;;;9.32;6.07;;;;;;;;;;5053349;28;20464;-76
2021/09/03 10:28:08;;;;;;;9.45;6.10;;;;;;;;;;5044106;28;20146;-76
2021/09/03 10:31:05;;;;;;;12.48;5.88;;;;;;;;;;5055092;28;20043;-77
2021/09/03 10:33:50;;;;;;;10.30;5.80;;;;;;;;;;5037568;28;20370;-77
2021/09/03 10:36:55;;;;;;;9.52;5.78;;;;;;;;;;5047262;28;20075;-75
2021/09/03 10:39:43;;;;;;;8.60;6.15;;;;;;;;;;5046711;28;20052;-76
2021/09/03 10:42:37;;;;;;;8.57;6.03;;;;;;;;;;5045067;28;20060;-76
2021/09/03 10:45:31;;;;;;;9.18;6.50;;;;;;;;;;5043198;28;20401;-76
2021/09/03 10:48:26;;;;;;;8.45;5.53;;;;;;;;;;5044595;28;20107;-76
2021/09/03 10:51:10;;;;;;;7.93;5.90;;;;;;;;;;5041416;28;20292;-76
2021/09/03 10:53:55;;;;;;;9.40;6.15;;;;;;;;;;5026791;28;20040;-76
2021/09/03 10:56:42;;;;;;;7.88;6.10;;;;;;;;;;5039254;28;20047;-76
2021/09/03 10:59:26;;;;;;;8.88;5.93;;;;;;;;;;5045913;28;20083;-76
2021/09/03 11:02:13;;;;;;;10.45;6.15;;;;;;;;;;5047838;28;20068;-76
2021/09/03 11:05:09;;;;;;;10.18;6.18;;;;;;;;;;5027875;28;20110;-76
2021/09/03 11:07:54;;;;;;;7.82;5.68;;;;;;;;;;5039255;28;20501;-75
2021/09/03 11:10:39;;;;;;;12.20;6.22;;;;;;;;;;5046606;28;20040;-76
2021/09/03 11:13:23;;;;;;;8.80;5.65;;;;;;;;;;5045875;28;20040;-75
2021/09/03 11:16:17;;;;;;;9.80;6.03;;;;;;;;;;5044849;28;20090;-74
2021/09/03 11:19:08;;;;;;;9.10;6.32;;;;;;;;;;5013515;28;20771;-75
2021/09/03 11:21:58;;;;;;;8.38;5.80;;;;;;;;;;5045129;28;20095;-81
2021/09/03 11:24:42;;;;;;;8.80;5.88;;;;;;;;;;5046445;28;20055;-81
2021/09/03 11:27:29;;;;;;;8.95;6.10;;;;;;;;;;5035581;28;20044;-80
2021/09/03 11:30:17;;;;;;;9.50;5.90;;;;;;;;;;5044521;28;20517;-80
2021/09/03 11:33:01;;;;;;;9.57;6.07;;;;;;;;;;5032288;28;20044;-80
2021/09/03 11:35:45;;;;;;;11.45;6.10;;;;;;;;;;5045286;28;20064;-82
2021/09/03 11:38:30;;;;;;;9.55;5.90;;;;;;;;;;5045250;28;20051;-80
2021/09/03 11:41:15;;;;;;;10.10;6.18;;;;;;;;;;5046727;28;20047;-80
2021/09/03 11:44:07;;;;;;;7.93;5.85;;;;;;;;;;5046358;28;20087;-80
2021/09/03 11:46:51;;;;;;;9.85;5.88;;;;;;;;;;5046515;28;20083;-81
2021/09/03 11:49:36;;;;;;;9.50;6.32;;;;;;;;;;5045259;28;20040;-81
2021/09/03 11:52:25;;;;;;;9.43;5.57;;;;;;;;;;5031652;28;20102;-81
2021/09/03 11:55:14;;;;;;;8.10;5.70;;;;;;;;;;5046620;28;20445;-81
2021/09/03 11:58:05;;;;;;;10.75;6.03;;;;;;;;;;5045717;28;20122;-81
2021/09/03 12:00:50;;;;;;;8.43;5.85;;;;;;;;;;5045710;28;20044;-77
2021/09/03 12:03:36;;;;;;;8.27;5.63;;;;;;;;;;5025569;28;20079;-81
2021/09/03 12:06:22;;;;;;;10.10;5.75;;;;;;;;;;5025561;28;20051;-81
2021/09/03 12:09:24;;;;;;;8.95;5.70;;;;;;;;;;5011827;28;20585;-80
2021/09/03 12:12:09;;;;;;;10.40;6.00;;;;;;;;;;5031134;28;20047;-79
2021/09/03 12:14:57;;;;;;;8.82;6.00;;;;;;;;;;5045356;28;20047;-80
2021/09/03 12:17:42;;;;;;;10.05;6.03;;;;;;;;;;5025168;28;20056;-80
2021/09/03 12:20:28;;;;;;;9.10;6.28;;;;;;;;;;5031090;28;20552;-81
2021/09/03 12:23:14;;;;;;;9.48;5.60;;;;;;;;;;5023550;28;20052;-79
2021/09/03 12:26:05;;;;;;;8.73;5.78;;;;;;;;;;5023156;28;20443;-81
2021/09/03 12:28:51;;;;;;;7.70;5.60;;;;;;;;;;5029104;28;20101;-80
2021/09/03 12:31:36;;;;;;;8.38;5.72;;;;;;;;;;5044852;28;20481;-80
2021/09/03 12:34:23;;;;;;;10.15;5.75;;;;;;;;;;5044858;28;20648;-81
2021/09/03 12:37:08;;;;;;;8.43;6.20;;;;;;;;;;5045010;28;20056;-81
2021/09/03 12:39:53;;;;;;;9.65;6.05;;;;;;;;;;5044871;28;20082;-81
2021/09/03 12:42:40;;;;;;;9.35;5.70;;;;;;;;;;5048300;28;20106;-80
2021/09/03 12:45:29;;;;;;;10.00;6.22;;;;;;;;;;5048536;28;20544;-80
2021/09/03 12:48:13;;;;;;;8.98;5.90;;;;;;;;;;5048918;28;20492;-80
2021/09/03 12:50:58;;;;;;;8.40;5.75;;;;;;;;;;5049589;28;20087;-77
2021/09/03 12:53:47;;;;;;;8.25;5.80;;;;;;;;;;5048671;28;20509;-81
2021/09/03 12:56:31;;;;;;;7.32;5.60;;;;;;;;;;5047283;28;20517;-80
2021/09/03 12:59:16;;;;;;;8.77;5.78;;;;;;;;;;5028585;28;20457;-80
2021/09/03 13:02:06;;;;;;;8.93;5.53;;;;;;;;;;5048186;28;20115;-80
2021/09/03 13:04:51;;;;;;;8.05;5.85;;;;;;;;;;5048375;28;20234;-80
2021/09/03 13:07:35;;;;;;;10.05;5.80;;;;;;;;;;5047755;28;20591;-81
2021/09/03 13:10:20;;;;;;;8.88;5.32;;;;;;;;;;5048097;28;20120;-81
2021/09/03 13:13:04;;;;;;;10.40;6.07;;;;;;;;;;5049250;28;20140;-80
2021/09/03 13:15:49;;;;;;;7.22;5.43;;;;;;;;;;5046571;28;20083;-83
2021/09/03 13:18:34;;;;;;;8.45;5.53;;;;;;;;;;5046718;28;20047;-84
2021/09/03 13:21:18;;;;;;;7.40;5.30;;;;;;;;;;5048708;28;20496;-81
2021/09/03 13:24:03;;;;;;;9.90;6.10;;;;;;;;;;5047798;28;20048;-80
2021/09/03 13:26:48;;;;;;;8.77;5.95;;;;;;;;;;5047286;28;20067;-81
2021/09/03 13:29:33;;;;;;;7.75;5.50;;;;;;;;;;5035909;28;20043;-82
2021/09/03 13:32:17;;;;;;;8.75;5.20;;;;;;;;;;5039432;28;20072;-81
2021/09/03 13:35:02;;;;;;;8.63;5.30;;;;;;;;;;5041981;28;20497;-83
2021/09/03 13:37:46;;;;;;;8.38;5.85;;;;;;;;;;5034764;28;20052;-81
2021/09/03 13:40:31;;;;;;;8.95;5.28;;;;;;;;;;5026195;28;20068;-82
2021/09/03 13:43:16;;;;;;;8.63;5.28;;;;;;;;;;5048423;28;20120;-82
2021/09/03 13:46:00;;;;;;;8.07;5.35;;;;;;;;;;5046769;28;20075;-83
2021/09/03 13:48:45;;;;;;;8.32;5.15;;;;;;;;;;5045980;28;20048;-82
2021/09/03 13:51:29;;;;;;;8.77;5.97;;;;;;;;;;5027333;28;20064;-83
2021/09/03 13:54:15;;;;;;;8.23;5.47;;;;;;;;;;5026832;28;20517;-81
2021/09/03 13:56:59;;;;;;;7.22;5.20;;;;;;;;;;5030563;28;20039;-78
2021/09/03 13:59:44;;;;;;;8.57;5.78;;;;;;;;;;5044381;28;20106;-82
2021/09/03 14:02:29;;;;;;;7.70;5.60;;;;;;;;;;5047158;28;20146;-81
2021/09/03 14:05:13;;;;;;;8.98;5.30;;;;;;;;;;5044893;28;20631;-81
2021/09/03 14:07:58;;;;;;;8.95;5.95;;;;;;;;;;5046093;28;20065;-82
2021/09/03 14:10:47;;;;;;;11.15;6.10;;;;;;;;;;5025407;28;20087;-80
2021/09/03 14:13:32;;;;;;;10.60;5.85;;;;;;;;;;5047842;28;20059;-84
2021/09/03 14:16:16;;;;;;;9.43;6.32;;;;;;;;;;5047002;28;20044;-85
2021/09/03 14:19:01;;;;;;;10.57;5.90;;;;;;;;;;5047812;28;20710;-76
2021/09/03 14:21:45;;;;;;;9.95;6.25;;;;;;;;;;5045385;28;20064;-81
2021/09/03 14:24:30;;;;;;;9.70;5.75;;;;;;;;;;5029627;28;20039;-79
2021/09/03 14:27:14;;;;;;;11.07;5.95;;;;;;;;;;5046225;28;20043;-83
2021/09/03 14:29:59;;;;;;;9.68;5.80;;;;;;;;;;5046961;28;20067;-82
2021/09/03 14:32:44;;;;;;;10.27;5.82;;;;;;;;;;5032248;28;20158;-83
2021/09/03 14:35:28;;;;;;;9.02;5.70;;;;;;;;;;5047252;28;20445;-83
2021/09/03 14:38:13;;;;;;;10.13;5.60;;;;;;;;;;5027542;28;20049;-81
2021/09/03 14:40:58;;;;;;;9.48;5.32;;;;;;;;;;5037317;28;20044;-81
2021/09/03 14:43:43;;;;;;;11.52;5.35;;;;;;;;;;5045872;28;20128;-85
2021/09/03 14:46:27;;;;;;;8.15;5.57;;;;;;;;;;5046286;28;20497;-74
2021/09/03 14:49:14;;;;;;;10.73;5.35;;;;;;;;;;5031136;28;20476;-82
2021/09/03 14:51:59;;;;;;;8.38;5.28;;;;;;;;;;5029695;28;20044;-79
2021/09/03 14:54:43;;;;;;;10.13;6.07;;;;;;;;;;5035624;28;20114;-78
2021/09/03 14:57:28;;;;;;;20.67;6.20;;;;;;;;;;5024057;28;20044;-79
2021/09/03 15:00:13;;;;;;;14.25;5.88;;;;;;;;;;5038203;28;20091;-78
2021/09/03 15:02:58;;;;;;;8.60;5.45;;;;;;;;;;5044451;28;20131;-77
2021/09/03 15:05:42;;;;;;;13.27;6.03;;;;;;;;;;5026435;28;20047;-78
2021/09/03 15:08:27;;;;;;;8.52;4.78;;;;;;;;;;5045891;28;20044;-79
2021/09/03 15:11:11;;;;;;;8.68;5.20;;;;;;;;;;5031888;28;20520;-80
2021/09/03 15:13:56;;;;;;;8.90;5.82;;;;;;;;;;5042113;28;20052;-77
2021/09/03 15:16:40;;;;;;;7.07;5.32;;;;;;;;;;5040763;28;20520;-76
2021/09/03 15:19:25;;;;;;;7.68;5.05;;;;;;;;;;5046272;28;20111;-76
2021/09/03 15:22:10;;;;;;;7.68;5.28;;;;;;;;;;5046737;28;20406;-75
2021/09/03 15:24:55;;;;;;;11.73;5.18;;;;;;;;;;5030123;28;20107;-76
2021/09/03 15:27:43;;;;;;;7.95;5.07;;;;;;;;;;5015516;28;20040;-76
2021/09/03 15:30:28;;;;;;;8.82;5.13;;;;;;;;;;5044397;28;20469;-76
2021/09/03 15:33:12;;;;;;;8.25;4.93;;;;;;;;;;5025591;28;20498;-76
2021/09/03 15:35:57;;;;;;;7.10;5.03;;;;;;;;;;5025565;28;20123;-75
2021/09/03 15:38:42;;;;;;;8.45;5.13;;;;;;;;;;5043695;28;20063;-76
2021/09/03 15:41:26;;;;;;;9.13;4.95;;;;;;;;;;5043403;28;20036;-76
2021/09/03 15:44:11;;;;;;;7.55;4.97;;;;;;;;;;5048121;28;20283;-76
2021/09/03 15:46:55;;;;;;;7.60;5.30;;;;;;;;;;5046742;28;20094;-76
2021/09/03 15:49:40;;;;;;;8.70;5.38;;;;;;;;;;5031895;28;20424;-76
2021/09/03 15:52:24;;;;;;;7.22;4.93;;;;;;;;;;5046064;28;20138;-76
2021/09/03 15:55:09;;;;;;;13.80;5.90;;;;;;;;;;5046619;28;20040;-76
2021/09/03 15:57:54;;;;;;;10.88;5.70;;;;;;;;;;5045808;28;20056;-77
2021/09/03 16:00:39;;;;;;;7.13;4.78;;;;;;;;;;5039493;28;20044;-77
2021/09/03 16:03:24;;;;;;;10.10;5.50;;;;;;;;;;5026957;28;20438;-77
2021/09/03 16:06:10;;;;;;;8.00;5.30;;;;;;;;;;5031462;28;20388;-77
2021/09/03 16:08:55;;;;;;;7.85;5.43;;;;;;;;;;5048018;28;20088;-77
2021/09/03 16:11:40;;;;;;;8.68;5.82;;;;;;;;;;5029715;28;20549;-78
2021/09/03 16:14:24;;;;;;;10.93;5.72;;;;;;;;;;5043746;28;20109;-77
2021/09/03 16:17:09;;;;;;;7.70;4.80;;;;;;;;;;5039528;28;20508;-76
2021/09/03 16:19:54;;;;;;;8.77;6.07;;;;;;;;;;5019865;28;20040;-75